sensor_id;sensor_type;location;lat;lon;timestamp;P1;durP1;ratioP1;P2;durP2;ratioP2
70253;SDS011;57649;42.968;1.608;2024-03-22T00:01:47;20.52;;;7.35;;
70253;SDS011;57649;42.968;1.608;2024-03-22T00:04:13;16.88;;;6.13;;
70253;SDS011;57649;42.968;1.608;2024-03-22T00:06:40;22.98;;;6.22;;
70253;SDS011;57649;42.968;1.608;2024-03-22T00:09:06;13.35;;;6.18;;
70253;SDS011;57649;42.968;1.608;2024-03-22T00:11:32;20.35;;;6.60;;
70253;SDS011;57649;42.968;1.608;2024-03-22T00:13:57;14.27;;;6.30;;
70253;SDS011;57649;42.968;1.608;2024-03-22T00:16:23;18.02;;;6.47;;
70253;SDS011;57649;42.968;1.608;2024-03-22T00:18:49;15.85;;;6.03;;
70253;SDS011;57649;42.968;1.608;2024-03-22T00:21:14;18.60;;;6.38;;
70253;SDS011;57649;42.968;1.608;2024-03-22T00:23:40;15.02;;;6.15;;
70253;SDS011;57649;42.968;1.608;2024-03-22T00:26:05;16.15;;;6.20;;
70253;SDS011;57649;42.968;1.608;2024-03-22T00:28:30;13.93;;;5.32;;
70253;SDS011;57649;42.968;1.608;2024-03-22T00:30:56;14.20;;;5.88;;
70253;SDS011;57649;42.968;1.608;2024-03-22T00:33:21;15.02;;;6.43;;
70253;SDS011;57649;42.968;1.608;2024-03-22T00:35:47;14.15;;;6.22;;
70253;SDS011;57649;42.968;1.608;2024-03-22T00:38:12;13.90;;;6.25;;
70253;SDS011;57649;42.968;1.608;2024-03-22T00:40:37;20.15;;;6.00;;
70253;SDS011;57649;42.968;1.608;2024-03-22T00:43:03;14.45;;;5.60;;
70253;SDS011;57649;42.968;1.608;2024-03-22T00:45:28;15.32;;;6.10;;
70253;SDS011;57649;42.968;1.608;2024-03-22T00:47:54;13.88;;;5.90;;
70253;SDS011;57649;42.968;1.608;2024-03-22T00:50:19;15.05;;;6.13;;
70253;SDS011;57649;42.968;1.608;2024-03-22T00:52:45;12.48;;;6.25;;
70253;SDS011;57649;42.968;1.608;2024-03-22T00:55:10;12.82;;;5.82;;
70253;SDS011;57649;42.968;1.608;2024-03-22T00:57:35;14.15;;;5.85;;
70253;SDS011;57649;42.968;1.608;2024-03-22T01:00:01;15.60;;;7.13;;
70253;SDS011;57649;42.968;1.608;2024-03-22T01:02:26;15.35;;;6.13;;
70253;SDS011;57649;42.968;1.608;2024-03-22T01:04:51;14.68;;;5.63;;
70253;SDS011;57649;42.968;1.608;2024-03-22T01:07:17;15.25;;;5.53;;
70253;SDS011;57649;42.968;1.608;2024-03-22T01:09:42;16.95;;;6.60;;
70253;SDS011;57649;42.968;1.608;2024-03-22T01:12:09;15.68;;;5.53;;
70253;SDS011;57649;42.968;1.608;2024-03-22T01:14:35;16.23;;;6.40;;
70253;SDS011;57649;42.968;1.608;2024-03-22T01:17:00;15.98;;;6.10;;
70253;SDS011;57649;42.968;1.608;2024-03-22T01:19:26;13.98;;;5.65;;
70253;SDS011;57649;42.968;1.608;2024-03-22T01:21:51;15.38;;;5.93;;
70253;SDS011;57649;42.968;1.608;2024-03-22T01:24:16;16.05;;;6.15;;
70253;SDS011;57649;42.968;1.608;2024-03-22T01:26:42;18.63;;;6.30;;
70253;SDS011;57649;42.968;1.608;2024-03-22T01:29:07;18.40;;;7.35;;
70253;SDS011;57649;42.968;1.608;2024-03-22T01:31:33;16.00;;;6.35;;
70253;SDS011;57649;42.968;1.608;2024-03-22T01:33:58;17.52;;;6.18;;
70253;SDS011;57649;42.968;1.608;2024-03-22T01:36:23;15.43;;;6.28;;
70253;SDS011;57649;42.968;1.608;2024-03-22T01:38:49;13.60;;;6.00;;
70253;SDS011;57649;42.968;1.608;2024-03-22T01:41:14;20.40;;;6.05;;
70253;SDS011;57649;42.968;1.608;2024-03-22T01:43:39;18.95;;;5.22;;
70253;SDS011;57649;42.968;1.608;2024-03-22T01:46:05;12.05;;;5.50;;
70253;SDS011;57649;42.968;1.608;2024-03-22T01:48:33;11.77;;;5.10;;
70253;SDS011;57649;42.968;1.608;2024-03-22T01:50:59;15.70;;;5.90;;
70253;SDS011;57649;42.968;1.608;2024-03-22T01:53:24;14.98;;;5.68;;
70253;SDS011;57649;42.968;1.608;2024-03-22T01:55:50;12.23;;;5.47;;
70253;SDS011;57649;42.968;1.608;2024-03-22T01:58:16;18.48;;;5.78;;
70253;SDS011;57649;42.968;1.608;2024-03-22T02:00:41;13.15;;;5.47;;
70253;SDS011;57649;42.968;1.608;2024-03-22T02:03:07;17.65;;;5.78;;
70253;SDS011;57649;42.968;1.608;2024-03-22T02:05:33;9.55;;;5.63;;
70253;SDS011;57649;42.968;1.608;2024-03-22T02:07:58;12.77;;;4.97;;
70253;SDS011;57649;42.968;1.608;2024-03-22T02:17:07;12.15;;;5.30;;
70253;SDS011;57649;42.968;1.608;2024-03-22T02:19:33;14.45;;;5.68;;
70253;SDS011;57649;42.968;1.608;2024-03-22T02:21:58;13.35;;;5.90;;
70253;SDS011;57649;42.968;1.608;2024-03-22T02:24:23;14.82;;;4.65;;
70253;SDS011;57649;42.968;1.608;2024-03-22T02:26:49;12.50;;;4.45;;
70253;SDS011;57649;42.968;1.608;2024-03-22T02:29:14;13.77;;;4.80;;
70253;SDS011;57649;42.968;1.608;2024-03-22T02:31:39;21.75;;;5.30;;
70253;SDS011;57649;42.968;1.608;2024-03-22T02:34:05;13.65;;;5.13;;
70253;SDS011;57649;42.968;1.608;2024-03-22T02:36:30;11.27;;;4.93;;
70253;SDS011;57649;42.968;1.608;2024-03-22T02:38:55;15.15;;;4.68;;
70253;SDS011;57649;42.968;1.608;2024-03-22T02:41:21;16.02;;;5.70;;
70253;SDS011;57649;42.968;1.608;2024-03-22T02:43:47;15.90;;;5.70;;
70253;SDS011;57649;42.968;1.608;2024-03-22T02:46:12;12.90;;;5.68;;
70253;SDS011;57649;42.968;1.608;2024-03-22T02:48:37;18.75;;;5.43;;
70253;SDS011;57649;42.968;1.608;2024-03-22T02:51:03;16.75;;;6.88;;
70253;SDS011;57649;42.968;1.608;2024-03-22T02:53:28;15.43;;;5.70;;
70253;SDS011;57649;42.968;1.608;2024-03-22T02:55:54;16.70;;;5.68;;
70253;SDS011;57649;42.968;1.608;2024-03-22T02:58:20;18.27;;;5.00;;
70253;SDS011;57649;42.968;1.608;2024-03-22T03:00:46;14.35;;;4.57;;
70253;SDS011;57649;42.968;1.608;2024-03-22T03:03:11;20.20;;;5.10;;
70253;SDS011;57649;42.968;1.608;2024-03-22T03:05:37;14.00;;;5.30;;
70253;SDS011;57649;42.968;1.608;2024-03-22T03:08:02;17.58;;;5.53;;
70253;SDS011;57649;42.968;1.608;2024-03-22T03:10:28;16.17;;;5.65;;
70253;SDS011;57649;42.968;1.608;2024-03-22T03:12:54;13.77;;;6.05;;
70253;SDS011;57649;42.968;1.608;2024-03-22T03:15:20;19.33;;;11.32;;
70253;SDS011;57649;42.968;1.608;2024-03-22T03:17:45;24.05;;;11.50;;
70253;SDS011;57649;42.968;1.608;2024-03-22T03:20:10;20.50;;;7.35;;
70253;SDS011;57649;42.968;1.608;2024-03-22T03:22:38;19.63;;;7.38;;
70253;SDS011;57649;42.968;1.608;2024-03-22T03:25:07;14.98;;;6.80;;
70253;SDS011;57649;42.968;1.608;2024-03-22T03:27:32;18.38;;;5.60;;
70253;SDS011;57649;42.968;1.608;2024-03-22T03:29:58;15.15;;;5.65;;
70253;SDS011;57649;42.968;1.608;2024-03-22T03:32:23;14.60;;;5.15;;
70253;SDS011;57649;42.968;1.608;2024-03-22T03:34:50;16.50;;;5.32;;
70253;SDS011;57649;42.968;1.608;2024-03-22T03:37:15;22.15;;;6.68;;
70253;SDS011;57649;42.968;1.608;2024-03-22T03:39:41;16.05;;;5.05;;
70253;SDS011;57649;42.968;1.608;2024-03-22T03:42:06;11.55;;;4.40;;
70253;SDS011;57649;42.968;1.608;2024-03-22T03:44:31;18.73;;;5.32;;
70253;SDS011;57649;42.968;1.608;2024-03-22T03:46:57;13.50;;;5.82;;
70253;SDS011;57649;42.968;1.608;2024-03-22T03:49:25;15.60;;;5.00;;
70253;SDS011;57649;42.968;1.608;2024-03-22T03:51:50;10.80;;;4.93;;
70253;SDS011;57649;42.968;1.608;2024-03-22T03:54:15;13.75;;;5.22;;
70253;SDS011;57649;42.968;1.608;2024-03-22T03:56:41;13.15;;;5.13;;
70253;SDS011;57649;42.968;1.608;2024-03-22T03:59:06;10.75;;;5.13;;
70253;SDS011;57649;42.968;1.608;2024-03-22T04:01:32;12.90;;;6.03;;
70253;SDS011;57649;42.968;1.608;2024-03-22T04:03:57;14.65;;;5.32;;
70253;SDS011;57649;42.968;1.608;2024-03-22T04:06:22;16.15;;;4.63;;
70253;SDS011;57649;42.968;1.608;2024-03-22T04:08:48;15.18;;;4.70;;
70253;SDS011;57649;42.968;1.608;2024-03-22T04:11:13;12.02;;;4.45;;
70253;SDS011;57649;42.968;1.608;2024-03-22T04:13:38;13.18;;;4.82;;
70253;SDS011;57649;42.968;1.608;2024-03-22T04:16:04;21.17;;;5.72;;
70253;SDS011;57649;42.968;1.608;2024-03-22T04:18:30;17.45;;;4.72;;
70253;SDS011;57649;42.968;1.608;2024-03-22T04:20:56;13.50;;;5.07;;
70253;SDS011;57649;42.968;1.608;2024-03-22T04:23:22;16.85;;;5.18;;
70253;SDS011;57649;42.968;1.608;2024-03-22T04:25:52;12.13;;;5.20;;
70253;SDS011;57649;42.968;1.608;2024-03-22T04:28:22;14.85;;;6.03;;
70253;SDS011;57649;42.968;1.608;2024-03-22T04:30:59;10.38;;;4.85;;
70253;SDS011;57649;42.968;1.608;2024-03-22T04:33:29;13.10;;;5.00;;
70253;SDS011;57649;42.968;1.608;2024-03-22T04:35:55;12.75;;;4.70;;
70253;SDS011;57649;42.968;1.608;2024-03-22T04:38:22;20.27;;;5.95;;
70253;SDS011;57649;42.968;1.608;2024-03-22T04:40:47;14.25;;;4.97;;
70253;SDS011;57649;42.968;1.608;2024-03-22T04:43:14;14.85;;;4.90;;
70253;SDS011;57649;42.968;1.608;2024-03-22T04:45:41;12.30;;;5.60;;
70253;SDS011;57649;42.968;1.608;2024-03-22T04:48:09;13.13;;;5.18;;
70253;SDS011;57649;42.968;1.608;2024-03-22T04:50:35;15.85;;;6.13;;
70253;SDS011;57649;42.968;1.608;2024-03-22T04:53:01;17.00;;;5.10;;
70253;SDS011;57649;42.968;1.608;2024-03-22T04:55:27;14.13;;;5.13;;
70253;SDS011;57649;42.968;1.608;2024-03-22T04:57:52;13.30;;;4.47;;
70253;SDS011;57649;42.968;1.608;2024-03-22T05:00:18;13.18;;;4.47;;
70253;SDS011;57649;42.968;1.608;2024-03-22T05:02:44;15.38;;;4.47;;
70253;SDS011;57649;42.968;1.608;2024-03-22T05:05:09;15.52;;;4.88;;
70253;SDS011;57649;42.968;1.608;2024-03-22T05:07:35;15.65;;;4.47;;
70253;SDS011;57649;42.968;1.608;2024-03-22T05:10:00;12.93;;;4.35;;
70253;SDS011;57649;42.968;1.608;2024-03-22T05:12:26;13.10;;;4.57;;
70253;SDS011;57649;42.968;1.608;2024-03-22T05:14:52;15.27;;;4.78;;
70253;SDS011;57649;42.968;1.608;2024-03-22T05:17:17;16.23;;;5.13;;
70253;SDS011;57649;42.968;1.608;2024-03-22T05:19:42;15.20;;;3.92;;
70253;SDS011;57649;42.968;1.608;2024-03-22T05:22:08;15.00;;;5.20;;
70253;SDS011;57649;42.968;1.608;2024-03-22T05:24:33;15.65;;;4.30;;
70253;SDS011;57649;42.968;1.608;2024-03-22T05:26:58;22.73;;;5.93;;
70253;SDS011;57649;42.968;1.608;2024-03-22T05:29:24;17.77;;;4.72;;
70253;SDS011;57649;42.968;1.608;2024-03-22T05:31:50;12.48;;;4.43;;
70253;SDS011;57649;42.968;1.608;2024-03-22T05:34:17;15.20;;;4.55;;
70253;SDS011;57649;42.968;1.608;2024-03-22T05:36:42;16.88;;;4.60;;
70253;SDS011;57649;42.968;1.608;2024-03-22T05:39:08;16.33;;;4.18;;
70253;SDS011;57649;42.968;1.608;2024-03-22T05:41:35;14.70;;;4.18;;
70253;SDS011;57649;42.968;1.608;2024-03-22T05:44:01;17.15;;;4.70;;
70253;SDS011;57649;42.968;1.608;2024-03-22T05:46:26;17.35;;;4.80;;
70253;SDS011;57649;42.968;1.608;2024-03-22T05:48:51;18.00;;;4.22;;
70253;SDS011;57649;42.968;1.608;2024-03-22T05:51:17;16.90;;;4.63;;
70253;SDS011;57649;42.968;1.608;2024-03-22T05:53:43;13.10;;;4.90;;
70253;SDS011;57649;42.968;1.608;2024-03-22T05:56:09;12.45;;;4.53;;
70253;SDS011;57649;42.968;1.608;2024-03-22T05:58:34;20.48;;;5.03;;
70253;SDS011;57649;42.968;1.608;2024-03-22T06:01:01;13.85;;;5.25;;
70253;SDS011;57649;42.968;1.608;2024-03-22T06:03:28;20.67;;;5.15;;
70253;SDS011;57649;42.968;1.608;2024-03-22T06:05:53;13.88;;;4.30;;
70253;SDS011;57649;42.968;1.608;2024-03-22T06:08:21;16.85;;;4.32;;
70253;SDS011;57649;42.968;1.608;2024-03-22T06:10:47;14.07;;;4.70;;
70253;SDS011;57649;42.968;1.608;2024-03-22T06:13:12;16.00;;;6.22;;
70253;SDS011;57649;42.968;1.608;2024-03-22T06:15:37;19.63;;;5.68;;
70253;SDS011;57649;42.968;1.608;2024-03-22T06:18:03;19.00;;;5.10;;
70253;SDS011;57649;42.968;1.608;2024-03-22T06:20:28;14.52;;;4.88;;
70253;SDS011;57649;42.968;1.608;2024-03-22T06:22:55;19.05;;;4.93;;
70253;SDS011;57649;42.968;1.608;2024-03-22T06:25:20;14.27;;;4.75;;
70253;SDS011;57649;42.968;1.608;2024-03-22T06:27:46;16.38;;;4.93;;
70253;SDS011;57649;42.968;1.608;2024-03-22T06:30:11;18.23;;;4.53;;
70253;SDS011;57649;42.968;1.608;2024-03-22T06:32:37;19.38;;;4.15;;
70253;SDS011;57649;42.968;1.608;2024-03-22T06:35:02;18.25;;;4.75;;
70253;SDS011;57649;42.968;1.608;2024-03-22T06:37:28;14.48;;;4.68;;
70253;SDS011;57649;42.968;1.608;2024-03-22T06:39:53;18.00;;;4.72;;
70253;SDS011;57649;42.968;1.608;2024-03-22T06:42:19;16.73;;;4.95;;
70253;SDS011;57649;42.968;1.608;2024-03-22T06:44:44;17.45;;;4.50;;
70253;SDS011;57649;42.968;1.608;2024-03-22T06:47:09;16.58;;;5.82;;
70253;SDS011;57649;42.968;1.608;2024-03-22T06:49:35;18.05;;;4.40;;
70253;SDS011;57649;42.968;1.608;2024-03-22T06:52:01;19.13;;;4.72;;
70253;SDS011;57649;42.968;1.608;2024-03-22T06:54:26;15.02;;;4.68;;
70253;SDS011;57649;42.968;1.608;2024-03-22T06:56:52;14.13;;;4.18;;
70253;SDS011;57649;42.968;1.608;2024-03-22T06:59:17;11.60;;;5.13;;
70253;SDS011;57649;42.968;1.608;2024-03-22T07:01:42;12.43;;;4.80;;
70253;SDS011;57649;42.968;1.608;2024-03-22T07:04:08;19.90;;;5.22;;
70253;SDS011;57649;42.968;1.608;2024-03-22T07:06:34;14.68;;;4.50;;
70253;SDS011;57649;42.968;1.608;2024-03-22T07:08:59;19.63;;;6.50;;
70253;SDS011;57649;42.968;1.608;2024-03-22T07:11:24;17.80;;;6.32;;
70253;SDS011;57649;42.968;1.608;2024-03-22T07:13:50;15.10;;;4.88;;
70253;SDS011;57649;42.968;1.608;2024-03-22T07:16:15;16.27;;;5.82;;
70253;SDS011;57649;42.968;1.608;2024-03-22T07:18:41;25.65;;;7.20;;
70253;SDS011;57649;42.968;1.608;2024-03-22T07:21:07;14.43;;;4.80;;
70253;SDS011;57649;42.968;1.608;2024-03-22T07:23:32;17.85;;;4.65;;
70253;SDS011;57649;42.968;1.608;2024-03-22T07:25:57;12.80;;;4.75;;
70253;SDS011;57649;42.968;1.608;2024-03-22T07:28:24;14.80;;;4.50;;
70253;SDS011;57649;42.968;1.608;2024-03-22T07:30:49;16.13;;;4.45;;
70253;SDS011;57649;42.968;1.608;2024-03-22T07:33:15;17.48;;;4.40;;
70253;SDS011;57649;42.968;1.608;2024-03-22T07:35:43;17.17;;;4.97;;
70253;SDS011;57649;42.968;1.608;2024-03-22T07:38:11;16.00;;;3.95;;
70253;SDS011;57649;42.968;1.608;2024-03-22T07:40:48;18.50;;;4.90;;
70253;SDS011;57649;42.968;1.608;2024-03-22T07:43:13;19.25;;;4.93;;
70253;SDS011;57649;42.968;1.608;2024-03-22T07:45:41;18.38;;;4.60;;
70253;SDS011;57649;42.968;1.608;2024-03-22T07:48:07;20.48;;;5.07;;
70253;SDS011;57649;42.968;1.608;2024-03-22T07:50:32;17.52;;;4.22;;
70253;SDS011;57649;42.968;1.608;2024-03-22T07:52:57;21.05;;;5.47;;
70253;SDS011;57649;42.968;1.608;2024-03-22T07:55:23;14.35;;;3.97;;
70253;SDS011;57649;42.968;1.608;2024-03-22T07:57:48;16.05;;;5.68;;
70253;SDS011;57649;42.968;1.608;2024-03-22T08:00:14;16.23;;;5.07;;
70253;SDS011;57649;42.968;1.608;2024-03-22T08:02:41;23.17;;;4.70;;
70253;SDS011;57649;42.968;1.608;2024-03-22T08:05:09;12.80;;;3.80;;
70253;SDS011;57649;42.968;1.608;2024-03-22T08:07:35;17.23;;;4.63;;
70253;SDS011;57649;42.968;1.608;2024-03-22T08:10:00;19.13;;;4.38;;
70253;SDS011;57649;42.968;1.608;2024-03-22T08:12:27;15.63;;;4.72;;
70253;SDS011;57649;42.968;1.608;2024-03-22T08:14:53;15.15;;;4.53;;
70253;SDS011;57649;42.968;1.608;2024-03-22T08:17:18;17.50;;;4.00;;
70253;SDS011;57649;42.968;1.608;2024-03-22T08:19:44;15.43;;;4.07;;
70253;SDS011;57649;42.968;1.608;2024-03-22T08:22:09;19.80;;;5.43;;
70253;SDS011;57649;42.968;1.608;2024-03-22T08:24:35;20.65;;;5.13;;
70253;SDS011;57649;42.968;1.608;2024-03-22T08:27:01;21.13;;;5.63;;
70253;SDS011;57649;42.968;1.608;2024-03-22T08:29:26;15.68;;;4.45;;
70253;SDS011;57649;42.968;1.608;2024-03-22T08:31:51;13.23;;;4.18;;
70253;SDS011;57649;42.968;1.608;2024-03-22T08:34:18;16.60;;;4.40;;
70253;SDS011;57649;42.968;1.608;2024-03-22T08:36:43;14.93;;;4.50;;
70253;SDS011;57649;42.968;1.608;2024-03-22T08:39:09;14.30;;;4.00;;
70253;SDS011;57649;42.968;1.608;2024-03-22T08:41:36;20.70;;;5.13;;
70253;SDS011;57649;42.968;1.608;2024-03-22T08:44:02;13.68;;;4.60;;
70253;SDS011;57649;42.968;1.608;2024-03-22T08:46:27;16.65;;;4.03;;
70253;SDS011;57649;42.968;1.608;2024-03-22T08:48:53;20.75;;;4.07;;
70253;SDS011;57649;42.968;1.608;2024-03-22T08:51:19;18.20;;;5.18;;
70253;SDS011;57649;42.968;1.608;2024-03-22T08:53:46;17.70;;;4.47;;
70253;SDS011;57649;42.968;1.608;2024-03-22T08:56:12;13.27;;;4.53;;
70253;SDS011;57649;42.968;1.608;2024-03-22T08:58:37;16.65;;;4.43;;
70253;SDS011;57649;42.968;1.608;2024-03-22T09:01:03;20.42;;;3.97;;
70253;SDS011;57649;42.968;1.608;2024-03-22T09:03:28;13.32;;;3.88;;
70253;SDS011;57649;42.968;1.608;2024-03-22T09:05:55;21.00;;;3.92;;
70253;SDS011;57649;42.968;1.608;2024-03-22T09:08:21;23.23;;;5.53;;
70253;SDS011;57649;42.968;1.608;2024-03-22T09:10:47;16.65;;;4.40;;
70253;SDS011;57649;42.968;1.608;2024-03-22T09:13:12;16.13;;;4.68;;
70253;SDS011;57649;42.968;1.608;2024-03-22T09:15:38;15.98;;;4.43;;
70253;SDS011;57649;42.968;1.608;2024-03-22T09:18:04;19.50;;;4.88;;
70253;SDS011;57649;42.968;1.608;2024-03-22T09:20:30;22.95;;;5.00;;
70253;SDS011;57649;42.968;1.608;2024-03-22T09:22:55;17.80;;;4.60;;
70253;SDS011;57649;42.968;1.608;2024-03-22T09:25:22;18.05;;;4.38;;
70253;SDS011;57649;42.968;1.608;2024-03-22T09:27:48;19.45;;;5.05;;
70253;SDS011;57649;42.968;1.608;2024-03-22T09:30:14;17.17;;;3.47;;
70253;SDS011;57649;42.968;1.608;2024-03-22T09:32:39;19.83;;;4.53;;
70253;SDS011;57649;42.968;1.608;2024-03-22T09:35:05;16.85;;;4.35;;
70253;SDS011;57649;42.968;1.608;2024-03-22T09:37:31;18.25;;;5.28;;
70253;SDS011;57649;42.968;1.608;2024-03-22T09:39:57;24.27;;;5.43;;
70253;SDS011;57649;42.968;1.608;2024-03-22T09:42:23;21.20;;;4.72;;
70253;SDS011;57649;42.968;1.608;2024-03-22T09:44:51;20.25;;;5.10;;
70253;SDS011;57649;42.968;1.608;2024-03-22T09:47:17;25.42;;;5.13;;
70253;SDS011;57649;42.968;1.608;2024-03-22T09:49:43;20.50;;;4.68;;
70253;SDS011;57649;42.968;1.608;2024-03-22T09:52:11;17.70;;;4.88;;
70253;SDS011;57649;42.968;1.608;2024-03-22T09:54:39;15.35;;;4.50;;
70253;SDS011;57649;42.968;1.608;2024-03-22T09:57:08;19.23;;;4.88;;
70253;SDS011;57649;42.968;1.608;2024-03-22T09:59:37;15.52;;;4.72;;
70253;SDS011;57649;42.968;1.608;2024-03-22T10:02:03;22.60;;;4.63;;
70253;SDS011;57649;42.968;1.608;2024-03-22T10:04:28;18.73;;;4.38;;
70253;SDS011;57649;42.968;1.608;2024-03-22T10:06:55;20.63;;;4.80;;
70253;SDS011;57649;42.968;1.608;2024-03-22T10:09:27;18.42;;;4.55;;
70253;SDS011;57649;42.968;1.608;2024-03-22T10:11:57;20.33;;;5.72;;
70253;SDS011;57649;42.968;1.608;2024-03-22T10:14:23;23.80;;;4.82;;
70253;SDS011;57649;42.968;1.608;2024-03-22T10:16:52;18.80;;;4.78;;
70253;SDS011;57649;42.968;1.608;2024-03-22T10:19:19;17.60;;;4.57;;
70253;SDS011;57649;42.968;1.608;2024-03-22T10:22:03;18.63;;;4.80;;
70253;SDS011;57649;42.968;1.608;2024-03-22T10:24:29;16.20;;;4.32;;
70253;SDS011;57649;42.968;1.608;2024-03-22T10:26:55;17.98;;;4.57;;
70253;SDS011;57649;42.968;1.608;2024-03-22T10:29:21;17.25;;;4.38;;
70253;SDS011;57649;42.968;1.608;2024-03-22T10:31:50;26.95;;;4.25;;
70253;SDS011;57649;42.968;1.608;2024-03-22T10:34:17;19.42;;;5.15;;
70253;SDS011;57649;42.968;1.608;2024-03-22T10:36:43;14.75;;;3.50;;
70253;SDS011;57649;42.968;1.608;2024-03-22T10:39:09;20.25;;;4.18;;
70253;SDS011;57649;42.968;1.608;2024-03-22T10:41:38;12.82;;;4.30;;
70253;SDS011;57649;42.968;1.608;2024-03-22T10:44:03;18.95;;;3.97;;
70253;SDS011;57649;42.968;1.608;2024-03-22T10:46:30;16.98;;;4.28;;
70253;SDS011;57649;42.968;1.608;2024-03-22T10:48:59;21.10;;;4.28;;
70253;SDS011;57649;42.968;1.608;2024-03-22T10:51:29;13.93;;;4.15;;
70253;SDS011;57649;42.968;1.608;2024-03-22T10:53:57;20.27;;;4.28;;
70253;SDS011;57649;42.968;1.608;2024-03-22T10:56:24;14.75;;;4.65;;
70253;SDS011;57649;42.968;1.608;2024-03-22T10:58:50;14.77;;;4.43;;
70253;SDS011;57649;42.968;1.608;2024-03-22T11:01:24;23.40;;;5.28;;
70253;SDS011;57649;42.968;1.608;2024-03-22T11:04:02;16.83;;;4.97;;
70253;SDS011;57649;42.968;1.608;2024-03-22T11:06:28;24.98;;;4.82;;
70253;SDS011;57649;42.968;1.608;2024-03-22T11:09:02;17.23;;;4.35;;
70253;SDS011;57649;42.968;1.608;2024-03-22T11:11:30;19.60;;;4.15;;
70253;SDS011;57649;42.968;1.608;2024-03-22T11:14:05;16.52;;;3.95;;
70253;SDS011;57649;42.968;1.608;2024-03-22T11:16:30;18.88;;;4.22;;
70253;SDS011;57649;42.968;1.608;2024-03-22T11:18:56;19.77;;;4.70;;
70253;SDS011;57649;42.968;1.608;2024-03-22T11:21:22;16.40;;;3.97;;
70253;SDS011;57649;42.968;1.608;2024-03-22T11:24:00;16.40;;;4.25;;
70253;SDS011;57649;42.968;1.608;2024-03-22T11:26:25;18.00;;;5.20;;
70253;SDS011;57649;42.968;1.608;2024-03-22T11:28:51;16.95;;;4.32;;
70253;SDS011;57649;42.968;1.608;2024-03-22T11:31:16;15.07;;;4.70;;
70253;SDS011;57649;42.968;1.608;2024-03-22T11:33:42;14.90;;;3.63;;
70253;SDS011;57649;42.968;1.608;2024-03-22T11:36:09;22.60;;;3.95;;
70253;SDS011;57649;42.968;1.608;2024-03-22T11:38:34;15.65;;;4.20;;
70253;SDS011;57649;42.968;1.608;2024-03-22T11:41:00;19.10;;;4.55;;
70253;SDS011;57649;42.968;1.608;2024-03-22T11:43:28;19.17;;;3.95;;
70253;SDS011;57649;42.968;1.608;2024-03-22T11:45:54;13.13;;;4.10;;
70253;SDS011;57649;42.968;1.608;2024-03-22T11:48:20;20.85;;;4.70;;
70253;SDS011;57649;42.968;1.608;2024-03-22T11:50:46;15.40;;;3.70;;
70253;SDS011;57649;42.968;1.608;2024-03-22T11:53:12;15.43;;;4.40;;
70253;SDS011;57649;42.968;1.608;2024-03-22T11:55:37;18.13;;;4.15;;
70253;SDS011;57649;42.968;1.608;2024-03-22T11:58:03;20.65;;;4.57;;
70253;SDS011;57649;42.968;1.608;2024-03-22T12:00:28;15.80;;;3.83;;
70253;SDS011;57649;42.968;1.608;2024-03-22T12:05:57;17.13;;;3.97;;
70253;SDS011;57649;42.968;1.608;2024-03-22T12:08:34;17.75;;;4.53;;
70253;SDS011;57649;42.968;1.608;2024-03-22T12:11:00;19.10;;;3.88;;
70253;SDS011;57649;42.968;1.608;2024-03-22T12:13:28;11.93;;;4.28;;
70253;SDS011;57649;42.968;1.608;2024-03-22T12:18:44;21.67;;;4.20;;
70253;SDS011;57649;42.968;1.608;2024-03-22T12:21:19;18.73;;;4.18;;
70253;SDS011;57649;42.968;1.608;2024-03-22T12:26:44;20.48;;;4.15;;
70253;SDS011;57649;42.968;1.608;2024-03-22T12:29:15;15.45;;;3.95;;
70253;SDS011;57649;42.968;1.608;2024-03-22T12:32:43;19.58;;;4.18;;
70253;SDS011;57649;42.968;1.608;2024-03-22T12:35:40;18.90;;;4.72;;
70253;SDS011;57649;42.968;1.608;2024-03-22T12:38:15;15.48;;;3.67;;
70253;SDS011;57649;42.968;1.608;2024-03-22T12:41:28;15.27;;;3.88;;
70253;SDS011;57649;42.968;1.608;2024-03-22T12:44:13;14.38;;;3.88;;
70253;SDS011;57649;42.968;1.608;2024-03-22T12:46:39;12.18;;;4.03;;
70253;SDS011;57649;42.968;1.608;2024-03-22T12:49:07;19.40;;;3.75;;
70253;SDS011;57649;42.968;1.608;2024-03-22T12:51:33;14.55;;;4.25;;
70253;SDS011;57649;42.968;1.608;2024-03-22T12:54:00;19.98;;;4.07;;
70253;SDS011;57649;42.968;1.608;2024-03-22T12:56:26;16.65;;;4.25;;
70253;SDS011;57649;42.968;1.608;2024-03-22T12:58:52;14.63;;;4.03;;
70253;SDS011;57649;42.968;1.608;2024-03-22T13:01:17;18.50;;;3.80;;
70253;SDS011;57649;42.968;1.608;2024-03-22T13:03:51;19.27;;;4.55;;
70253;SDS011;57649;42.968;1.608;2024-03-22T13:09:21;13.98;;;3.95;;
70253;SDS011;57649;42.968;1.608;2024-03-22T13:12:10;18.05;;;3.97;;
70253;SDS011;57649;42.968;1.608;2024-03-22T13:18:14;17.50;;;3.67;;
70253;SDS011;57649;42.968;1.608;2024-03-22T13:20:49;14.32;;;3.90;;
70253;SDS011;57649;42.968;1.608;2024-03-22T13:23:18;18.75;;;4.45;;
70253;SDS011;57649;42.968;1.608;2024-03-22T13:25:50;15.43;;;3.80;;
70253;SDS011;57649;42.968;1.608;2024-03-22T13:28:47;11.88;;;4.25;;
70253;SDS011;57649;42.968;1.608;2024-03-22T13:31:13;16.30;;;4.93;;
70253;SDS011;57649;42.968;1.608;2024-03-22T13:33:40;15.57;;;4.50;;
70253;SDS011;57649;42.968;1.608;2024-03-22T13:36:05;16.60;;;3.67;;
70253;SDS011;57649;42.968;1.608;2024-03-22T13:38:34;15.13;;;3.88;;
70253;SDS011;57649;42.968;1.608;2024-03-22T13:43:53;14.30;;;3.50;;
70253;SDS011;57649;42.968;1.608;2024-03-22T13:46:34;17.83;;;3.50;;
70253;SDS011;57649;42.968;1.608;2024-03-22T13:49:12;14.77;;;3.72;;
70253;SDS011;57649;42.968;1.608;2024-03-22T13:57:58;19.25;;;4.07;;
70253;SDS011;57649;42.968;1.608;2024-03-22T14:00:52;20.52;;;4.22;;
70253;SDS011;57649;42.968;1.608;2024-03-22T14:06:05;14.98;;;3.65;;
70253;SDS011;57649;42.968;1.608;2024-03-22T14:08:33;13.13;;;4.20;;
70253;SDS011;57649;42.968;1.608;2024-03-22T14:14:32;18.70;;;4.45;;
70253;SDS011;57649;42.968;1.608;2024-03-22T14:28:03;17.92;;;4.57;;
70253;SDS011;57649;42.968;1.608;2024-03-22T14:34:27;22.35;;;5.40;;
70253;SDS011;57649;42.968;1.608;2024-03-22T14:36:52;15.57;;;3.70;;
70253;SDS011;57649;42.968;1.608;2024-03-22T14:42:17;16.13;;;4.25;;
70253;SDS011;57649;42.968;1.608;2024-03-22T14:45:26;17.50;;;4.20;;
70253;SDS011;57649;42.968;1.608;2024-03-22T14:48:30;16.60;;;3.90;;
70253;SDS011;57649;42.968;1.608;2024-03-22T14:50:56;13.65;;;3.80;;
70253;SDS011;57649;42.968;1.608;2024-03-22T14:53:24;13.43;;;3.28;;
70253;SDS011;57649;42.968;1.608;2024-03-22T14:58:18;16.33;;;3.33;;
70253;SDS011;57649;42.968;1.608;2024-03-22T15:00:50;13.48;;;4.85;;
70253;SDS011;57649;42.968;1.608;2024-03-22T15:03:17;17.35;;;3.53;;
70253;SDS011;57649;42.968;1.608;2024-03-22T15:05:42;19.35;;;4.75;;
70253;SDS011;57649;42.968;1.608;2024-03-22T15:08:07;12.85;;;3.55;;
70253;SDS011;57649;42.968;1.608;2024-03-22T15:10:33;16.55;;;3.95;;
70253;SDS011;57649;42.968;1.608;2024-03-22T15:12:58;17.88;;;3.83;;
70253;SDS011;57649;42.968;1.608;2024-03-22T15:15:24;17.60;;;4.10;;
70253;SDS011;57649;42.968;1.608;2024-03-22T15:17:49;21.42;;;4.20;;
70253;SDS011;57649;42.968;1.608;2024-03-22T15:20:15;20.42;;;3.95;;
70253;SDS011;57649;42.968;1.608;2024-03-22T15:22:40;21.83;;;4.68;;
70253;SDS011;57649;42.968;1.608;2024-03-22T15:25:06;11.38;;;3.40;;
70253;SDS011;57649;42.968;1.608;2024-03-22T15:27:31;19.63;;;4.10;;
70253;SDS011;57649;42.968;1.608;2024-03-22T15:29:57;20.17;;;4.30;;
70253;SDS011;57649;42.968;1.608;2024-03-22T15:32:22;18.45;;;4.40;;